sensor_id;sensor_type;location;lat;lon;timestamp;pressure;altitude;pressure_sealevel;temperature
77355;BMP280;66422;51.202;19.936;2023-08-21T00:01:37;99863.74;;;21.35
77355;BMP280;66422;51.202;19.936;2023-08-21T00:16:57;99869.39;;;21.13
77355;BMP280;66422;51.202;19.936;2023-08-21T00:32:17;99865.63;;;20.82
77355;BMP280;66422;51.202;19.936;2023-08-21T00:47:37;99861.41;;;20.76
77355;BMP280;66422;51.202;19.936;2023-08-21T01:02:57;99864.11;;;20.36
77355;BMP280;66422;51.202;19.936;2023-08-21T01:18:18;99871.20;;;20.57
77355;BMP280;66422;51.202;19.936;2023-08-21T01:33:45;99869.15;;;20.32
77355;BMP280;66422;51.202;19.936;2023-08-21T01:49:05;99863.16;;;20.42
77355;BMP280;66422;51.202;19.936;2023-08-21T02:04:25;99857.70;;;20.30
77355;BMP280;66422;51.202;19.936;2023-08-21T02:19:45;99842.45;;;20.19
77355;BMP280;66422;51.202;19.936;2023-08-21T02:35:04;99837.89;;;19.99
77355;BMP280;66422;51.202;19.936;2023-08-21T02:50:25;99833.57;;;19.96
77355;BMP280;66422;51.202;19.936;2023-08-21T03:05:45;99841.05;;;19.81
77355;BMP280;66422;51.202;19.936;2023-08-21T03:21:05;99841.63;;;19.59
77355;BMP280;66422;51.202;19.936;2023-08-21T03:36:25;99834.05;;;19.75
77355;BMP280;66422;51.202;19.936;2023-08-21T03:51:51;99827.65;;;19.60
77355;BMP280;66422;51.202;19.936;2023-08-21T04:07:12;99833.87;;;19.77
77355;BMP280;66422;51.202;19.936;2023-08-21T04:22:32;99840.75;;;19.99
77355;BMP280;66422;51.202;19.936;2023-08-21T04:37:51;99853.61;;;20.41
77355;BMP280;66422;51.202;19.936;2023-08-21T04:53:13;99841.64;;;21.20
77355;BMP280;66422;51.202;19.936;2023-08-21T05:08:33;99836.14;;;22.24
77355;BMP280;66422;51.202;19.936;2023-08-21T05:23:54;99853.09;;;23.53
77355;BMP280;66422;51.202;19.936;2023-08-21T05:39:14;99846.98;;;23.80
77355;BMP280;66422;51.202;19.936;2023-08-21T05:54:33;99882.63;;;23.59
77355;BMP280;66422;51.202;19.936;2023-08-21T06:09:54;99910.49;;;23.15
77355;BMP280;66422;51.202;19.936;2023-08-21T06:25:14;99995.17;;;22.31
77355;BMP280;66422;51.202;19.936;2023-08-21T06:40:34;100032.20;;;21.86
77355;BMP280;66422;51.202;19.936;2023-08-21T06:55:56;100017.13;;;21.52
77355;BMP280;66422;51.202;19.936;2023-08-21T07:11:16;100026.63;;;21.36
77355;BMP280;66422;51.202;19.936;2023-08-21T07:26:38;100016.52;;;21.68
77355;BMP280;66422;51.202;19.936;2023-08-21T07:41:58;100013.54;;;22.04
77355;BMP280;66422;51.202;19.936;2023-08-21T07:57:18;100027.67;;;23.29
77355;BMP280;66422;51.202;19.936;2023-08-21T08:12:41;100027.22;;;23.84
77355;BMP280;66422;51.202;19.936;2023-08-21T08:28:01;100020.64;;;24.51
77355;BMP280;66422;51.202;19.936;2023-08-21T08:43:22;100013.90;;;24.80
77355;BMP280;66422;51.202;19.936;2023-08-21T08:58:43;100014.10;;;25.48
77355;BMP280;66422;51.202;19.936;2023-08-21T09:14:04;100009.48;;;24.98
77355;BMP280;66422;51.202;19.936;2023-08-21T09:29:25;100011.83;;;25.28
77355;BMP280;66422;51.202;19.936;2023-08-21T09:44:48;99982.92;;;25.56
77355;BMP280;66422;51.202;19.936;2023-08-21T10:00:10;99997.48;;;26.17
77355;BMP280;66422;51.202;19.936;2023-08-21T10:15:36;99962.41;;;26.27
77355;BMP280;66422;51.202;19.936;2023-08-21T10:46:52;99964.54;;;26.53
77355;BMP280;66422;51.202;19.936;2023-08-21T11:02:14;99980.92;;;27.33
77355;BMP280;66422;51.202;19.936;2023-08-21T11:17:33;99982.63;;;27.27
77355;BMP280;66422;51.202;19.936;2023-08-21T11:33:07;99972.34;;;27.11
77355;BMP280;66422;51.202;19.936;2023-08-21T11:48:27;99964.67;;;27.33
77355;BMP280;66422;51.202;19.936;2023-08-21T12:03:47;99970.61;;;27.53
77355;BMP280;66422;51.202;19.936;2023-08-21T12:19:14;99957.73;;;27.55
77355;BMP280;66422;51.202;19.936;2023-08-21T12:34:33;99939.13;;;27.61
77355;BMP280;66422;51.202;19.936;2023-08-21T12:49:53;99941.67;;;28.27
77355;BMP280;66422;51.202;19.936;2023-08-21T13:05:13;99929.23;;;28.62
77355;BMP280;66422;51.202;19.936;2023-08-21T13:20:33;99926.08;;;28.17
77355;BMP280;66422;51.202;19.936;2023-08-21T13:35:52;99897.04;;;28.67
77355;BMP280;66422;51.202;19.936;2023-08-21T13:51:13;99889.67;;;28.22
77355;BMP280;66422;51.202;19.936;2023-08-21T14:06:32;99882.45;;;29.53
77355;BMP280;66422;51.202;19.936;2023-08-21T14:21:53;99880.30;;;29.69
77355;BMP280;66422;51.202;19.936;2023-08-21T14:37:13;99871.16;;;29.47
77355;BMP280;66422;51.202;19.936;2023-08-21T14:52:34;99868.39;;;29.28
77355;BMP280;66422;51.202;19.936;2023-08-21T15:07:54;99859.54;;;29.81
77355;BMP280;66422;51.202;19.936;2023-08-21T15:23:14;99868.95;;;29.34
77355;BMP280;66422;51.202;19.936;2023-08-21T15:38:33;99857.02;;;29.54
77355;BMP280;66422;51.202;19.936;2023-08-21T15:53:54;99848.58;;;28.50
77355;BMP280;66422;51.202;19.936;2023-08-21T16:09:14;99844.57;;;28.34
77355;BMP280;66422;51.202;19.936;2023-08-21T16:24:33;99839.63;;;28.04
77355;BMP280;66422;51.202;19.936;2023-08-21T16:39:53;99842.95;;;27.79
77355;BMP280;66422;51.202;19.936;2023-08-21T16:55:12;99850.91;;;27.32
77355;BMP280;66422;51.202;19.936;2023-08-21T17:10:32;99861.35;;;27.26
77355;BMP280;66422;51.202;19.936;2023-08-21T17:25:51;99858.42;;;28.97
77355;BMP280;66422;51.202;19.936;2023-08-21T17:41:13;99851.99;;;26.89
77355;BMP280;66422;51.202;19.936;2023-08-21T17:56:33;99845.36;;;25.25
77355;BMP280;66422;51.202;19.936;2023-08-21T18:11:53;99851.60;;;24.04
77355;BMP280;66422;51.202;19.936;2023-08-21T18:27:14;99838.32;;;23.37
77355;BMP280;66422;51.202;19.936;2023-08-21T18:42:33;99875.84;;;22.88
77355;BMP280;66422;51.202;19.936;2023-08-21T18:57:53;99884.37;;;22.61
77355;BMP280;66422;51.202;19.936;2023-08-21T19:13:13;99882.16;;;22.10
77355;BMP280;66422;51.202;19.936;2023-08-21T19:28:33;99881.14;;;21.72
77355;BMP280;66422;51.202;19.936;2023-08-21T19:43:53;99870.80;;;21.36
77355;BMP280;66422;51.202;19.936;2023-08-21T19:59:13;99889.02;;;21.10
77355;BMP280;66422;51.202;19.936;2023-08-21T20:14:32;99887.38;;;20.82
77355;BMP280;66422;51.202;19.936;2023-08-21T20:29:52;99895.10;;;20.57
77355;BMP280;66422;51.202;19.936;2023-08-21T20:45:12;99895.50;;;20.30
77355;BMP280;66422;51.202;19.936;2023-08-21T21:00:32;99899.86;;;20.02
77355;BMP280;66422;51.202;19.936;2023-08-21T21:15:52;99899.51;;;19.81
77355;BMP280;66422;51.202;19.936;2023-08-21T21:31:11;99904.75;;;19.53
77355;BMP280;66422;51.202;19.936;2023-08-21T21:46:31;99914.98;;;19.40
77355;BMP280;66422;51.202;19.936;2023-08-21T22:01:51;99913.48;;;19.17
77355;BMP280;66422;51.202;19.936;2023-08-21T22:17:10;99920.04;;;19.04
77355;BMP280;66422;51.202;19.936;2023-08-21T22:32:30;99932.55;;;18.80
77355;BMP280;66422;51.202;19.936;2023-08-21T22:47:50;99923.25;;;18.97
77355;BMP280;66422;51.202;19.936;2023-08-21T23:03:09;99921.80;;;18.85
77355;BMP280;66422;51.202;19.936;2023-08-21T23:18:29;99906.45;;;18.82
77355;BMP280;66422;51.202;19.936;2023-08-21T23:33:49;99908.02;;;18.59
77355;BMP280;66422;51.202;19.936;2023-08-21T23:49:08;99907.24;;;18.48
